Time;durP1;ratioP1;P1;durP2;ratioP2;P2;SDS_P1;SDS_P2;PMS_P1;PMS_P2;Temp;Humidity;BMP_temperature;BMP_pressure;BME280_temperature;BME280_humidity;BME280_pressure;Samples;Min_cycle;Max_cycle;Signal;HPM_P1;HPM_P2
2023/06/10 00:01:07;;;;;;;11.68;3.80;;;;;;;-144.47;56.54;52601.88;5011776;28;20038;-69
2023/06/10 00:03:33;;;;;;;10.68;3.38;;;;;;;-144.47;56.71;52629.69;5008853;28;20057;-68
2023/06/10 00:05:58;;;;;;;11.52;3.60;;;;;;;-144.47;56.71;52589.97;5009355;28;20133;-69
2023/06/10 00:08:24;;;;;;;12.82;3.70;;;;;;;-144.47;56.89;52580.03;5012407;28;20107;-68
2023/06/10 00:10:49;;;;;;;6.65;2.70;;;;;;;-144.47;57.13;52615.78;5012283;28;20052;-68
2023/06/10 00:13:16;;;;;;;7.93;3.00;;;;;;;-144.47;57.49;52609.81;5011951;28;20099;-70
2023/06/10 00:15:41;;;;;;;11.90;2.85;;;;;;;-144.47;57.63;52597.91;5011937;28;20523;-71
2023/06/10 00:18:09;;;;;;;11.15;3.38;;;;;;;-144.47;57.69;52603.84;5012008;28;20028;-70
2023/06/10 00:20:37;;;;;;;8.20;3.22;;;;;;;-144.47;58.03;52619.75;5012022;28;20099;-68
2023/06/10 00:23:03;;;;;;;11.83;3.77;;;;;;;-144.47;58.20;52576.06;5012071;28;20030;-69
2023/06/10 00:25:29;;;;;;;9.63;3.42;;;;;;;-144.47;58.46;52599.88;5011407;28;20029;-70
2023/06/10 00:27:55;;;;;;;22.02;3.88;;;;;;;-144.47;58.59;52597.91;5013019;28;20026;-70
2023/06/10 00:30:21;;;;;;;8.45;3.28;;;;;;;-144.47;58.77;52613.78;5012651;28;20025;-68
2023/06/10 00:32:46;;;;;;;10.73;3.35;;;;;;;-144.47;59.23;52609.81;5012980;28;20575;-69
2023/06/10 00:35:11;;;;;;;17.52;3.88;;;;;;;-144.47;58.94;52601.88;5011450;28;20101;-69
2023/06/10 00:37:37;;;;;;;14.27;3.25;;;;;;;-144.47;58.99;52599.88;5011535;28;20037;-68
2023/06/10 00:40:04;;;;;;;13.38;3.55;;;;;;;-144.47;59.17;52605.84;5011782;28;20550;-66
2023/06/10 00:42:29;;;;;;;10.02;3.92;;;;;;;-144.47;59.58;52607.84;5011781;28;20518;-67
2023/06/10 00:44:55;;;;;;;10.65;3.72;;;;;;;-144.47;60.00;52578.03;5011408;28;20071;-70
2023/06/10 00:47:21;;;;;;;11.05;3.45;;;;;;;-144.47;60.29;52597.91;5012019;28;20113;-69
2023/06/10 00:49:47;;;;;;;10.27;3.53;;;;;;;-144.47;60.27;52615.78;5011515;28;20022;-67
2023/06/10 00:52:14;;;;;;;10.40;3.83;;;;;;;-144.47;60.77;52591.94;5011821;28;20032;-69
2023/06/10 00:54:40;;;;;;;10.60;3.97;;;;;;;-144.47;60.93;52597.91;5011104;28;20499;-68
2023/06/10 00:57:05;;;;;;;11.23;3.72;;;;;;;-144.47;61.04;52585.97;5011319;28;20030;-70
2023/06/10 00:59:32;;;;;;;7.35;2.92;;;;;;;-144.47;61.41;52597.91;5011398;28;20028;-68
2023/06/10 01:01:58;;;;;;;10.68;3.55;;;;;;;-144.47;61.65;52589.97;5011251;28;20084;-69
2023/06/10 01:04:24;;;;;;;11.82;3.45;;;;;;;-144.47;61.97;52607.84;5009262;28;20362;-67
2023/06/10 01:06:50;;;;;;;9.45;3.88;;;;;;;-144.47;62.38;52611.81;5010993;28;20018;-70
2023/06/10 01:09:40;;;;;;;8.23;3.47;;;;;;;-144.47;62.61;52593.94;5011362;28;20080;-68
2023/06/10 01:12:30;;;;;;;10.10;4.10;;;;;;;-144.47;63.00;52591.94;5007961;28;20037;-69
2023/06/10 01:14:56;;;;;;;11.43;3.80;;;;;;;-144.47;63.07;52599.88;5003856;28;20129;-66
2023/06/10 01:17:22;;;;;;;11.63;4.50;;;;;;;-144.47;63.36;52585.97;5010440;28;20190;-69
2023/06/10 01:19:55;;;;;;;7.60;3.65;;;;;;;-144.47;63.45;52605.84;5010481;28;20388;-70
2023/06/10 01:22:22;;;;;;;11.15;4.50;;;;;;;-144.47;63.95;52597.91;5010872;28;20483;-66
2023/06/10 01:24:50;;;;;;;17.83;4.70;;;;;;;-144.47;64.20;52621.72;5010540;28;20439;-69
2023/06/10 01:27:19;;;;;;;9.20;3.83;;;;;;;-144.47;64.26;52617.75;5009255;28;20105;-70
2023/06/10 01:29:46;;;;;;;;;;;;;;;-144.47;64.45;52597.91;5011084;28;20026;-70
2023/06/10 01:32:21;;;;;;;14.00;4.78;;;;;;;-144.47;64.65;52603.84;5010984;28;19917;-69
2023/06/10 01:34:48;;;;;;;14.82;4.68;;;;;;;-144.47;64.98;52609.81;5010628;28;20037;-69
2023/06/10 01:37:18;;;;;;;12.55;4.93;;;;;;;-144.47;65.28;52619.75;5011010;28;20080;-69
2023/06/10 01:39:45;;;;;;;11.52;5.47;;;;;;;-144.47;65.66;52613.78;5010146;28;20030;-66
2023/06/10 01:42:11;;;;;;;14.60;5.47;;;;;;;-144.47;66.01;52617.75;5010959;28;20395;-70
2023/06/10 01:44:38;;;;;;;15.23;5.00;;;;;;;-144.47;66.26;52591.94;5010182;28;20109;-70
2023/06/10 01:47:04;;;;;;;14.90;5.22;;;;;;;-144.47;66.93;52605.84;5010484;28;20018;-69
2023/06/10 01:49:29;;;;;;;12.88;5.78;;;;;;;-144.47;66.96;52601.88;5010371;28;20014;-69
2023/06/10 01:51:55;;;;;;;14.05;5.53;;;;;;;-144.47;67.16;52593.94;5010883;28;20080;-71
2023/06/10 01:54:20;;;;;;;13.23;5.35;;;;;;;-144.47;67.08;52587.97;5010370;28;20507;-71
2023/06/10 01:56:45;;;;;;;16.17;4.78;;;;;;;-144.47;67.68;52607.84;5010613;28;20117;-68
2023/06/10 01:59:11;;;;;;;14.27;5.60;;;;;;;-144.47;67.90;52601.88;5010186;28;20109;-69
2023/06/10 02:01:36;;;;;;;14.65;4.60;;;;;;;-144.47;68.21;52615.78;5010620;28;20105;-70
2023/06/10 02:04:04;;;;;;;18.45;5.22;;;;;;;-144.47;68.28;52593.94;5009439;28;20029;-69
2023/06/10 02:06:30;;;;;;;13.45;5.13;;;;;;;-144.47;68.72;52597.91;5010546;28;20025;-69
2023/06/10 02:08:55;;;;;;;10.43;4.75;;;;;;;-144.47;69.12;52611.81;5009867;28;20466;-68
2023/06/10 02:11:20;;;;;;;15.63;5.15;;;;;;;-144.47;69.21;52599.88;5005363;28;20104;-69
2023/06/10 02:13:46;;;;;;;10.43;5.03;;;;;;;-144.47;69.82;52631.66;5009105;28;20030;-69
2023/06/10 02:16:12;;;;;;;15.05;4.85;;;;;;;-144.47;70.13;52591.94;5010390;28;20033;-69
2023/06/10 02:18:38;;;;;;;15.75;5.20;;;;;;;-144.47;70.61;52631.66;5008656;28;20022;-69
2023/06/10 02:21:03;;;;;;;10.07;4.43;;;;;;;-144.47;71.26;52601.88;5008783;28;20026;-70
2023/06/10 02:23:28;;;;;;;13.20;4.65;;;;;;;-144.47;71.73;52613.78;5009754;28;20053;-68
2023/06/10 02:25:54;;;;;;;12.05;4.53;;;;;;;-144.47;72.36;52609.81;5009963;28;20030;-70
2023/06/10 02:28:19;;;;;;;13.88;5.07;;;;;;;-144.47;72.06;52601.88;5009382;28;20026;-69
2023/06/10 02:30:46;;;;;;;15.23;4.90;;;;;;;-144.47;72.76;52635.63;5010222;28;20021;-69
2023/06/10 02:33:12;;;;;;;14.00;4.20;;;;;;;-144.47;73.55;52611.81;5009535;28;20030;-70
2023/06/10 02:35:38;;;;;;;12.10;4.20;;;;;;;-144.47;74.51;52607.84;5010080;28;20028;-71
2023/06/10 02:38:05;;;;;;;10.73;4.57;;;;;;;-144.47;74.94;52609.81;5009776;28;20478;-70
2023/06/10 02:40:31;;;;;;;8.88;4.50;;;;;;;-144.47;76.10;52582.00;5010266;28;20605;-69
2023/06/10 02:42:57;;;;;;;10.73;3.75;;;;;;;-144.47;76.78;52597.91;5008122;28;20034;-71
2023/06/10 02:45:23;;;;;;;10.63;4.72;;;;;;;-144.47;77.56;52631.66;5009408;28;20030;-69
2023/06/10 02:47:48;;;;;;;9.68;3.95;;;;;;;-144.47;78.85;52611.81;5009676;28;20160;-69
2023/06/10 02:50:13;;;;;;;16.13;4.13;;;;;;;-144.47;80.14;52623.72;5010096;28;20113;-70
2023/06/10 02:52:39;;;;;;;18.35;4.40;;;;;;;-144.47;81.17;52613.78;5009306;28;20041;-70
2023/06/10 02:55:05;;;;;;;9.75;4.50;;;;;;;-144.47;82.29;52605.84;5009223;28;20030;-71
2023/06/10 02:57:30;;;;;;;12.10;4.05;;;;;;;-144.47;82.47;52633.66;5009455;28;20052;-70
2023/06/10 02:59:56;;;;;;;7.97;3.85;;;;;;;-144.47;83.68;52625.72;5009731;28;20463;-71
2023/06/10 03:02:21;;;;;;;13.77;4.45;;;;;;;-144.47;84.38;52605.84;5009644;28;20448;-68
2023/06/10 03:04:47;;;;;;;10.82;3.90;;;;;;;-144.47;85.14;52601.88;5009168;28;20500;-70
2023/06/10 03:07:13;;;;;;;14.13;4.95;;;;;;;-144.47;85.82;52639.59;5009217;28;20038;-68
2023/06/10 03:09:39;;;;;;;11.98;4.30;;;;;;;-144.47;86.09;52623.72;5008118;28;20072;-68
2023/06/10 03:12:05;;;;;;;17.35;4.72;;;;;;;-144.47;86.60;52625.72;5005445;28;20042;-69
2023/06/10 03:14:31;;;;;;;10.20;4.32;;;;;;;-144.47;86.89;52605.84;5007386;28;20025;-67
2023/06/10 03:16:57;;;;;;;12.60;3.92;;;;;;;-144.47;87.08;52635.63;5008181;28;20137;-70
2023/06/10 03:19:23;;;;;;;13.85;4.10;;;;;;;-144.47;87.95;52631.66;5009490;28;20030;-70
2023/06/10 03:21:54;;;;;;;7.68;4.13;;;;;;;-144.47;88.39;52641.59;5009383;28;20106;-71
2023/06/10 03:24:20;;;;;;;9.02;3.80;;;;;;;-144.47;88.27;52637.63;5009598;28;20017;-69
2023/06/10 03:26:46;;;;;;;9.82;4.07;;;;;;;-144.47;88.61;52633.66;5007984;28;20040;-70
2023/06/10 03:29:11;;;;;;;10.45;4.60;;;;;;;-144.47;89.73;52635.63;5008860;28;20076;-68
2023/06/10 03:31:37;;;;;;;12.32;4.82;;;;;;;-144.47;90.65;52625.72;5009332;28;20099;-71
2023/06/10 03:34:02;;;;;;;13.75;4.53;;;;;;;-144.47;90.47;52611.81;5009025;28;20030;-68
2023/06/10 03:36:29;;;;;;;16.15;4.90;;;;;;;-144.47;91.19;52645.56;5009200;28;20025;-66
2023/06/10 03:38:56;;;;;;;10.32;3.90;;;;;;;-144.47;91.52;52629.69;5009124;28;20104;-69
2023/06/10 03:41:22;;;;;;;12.73;4.18;;;;;;;-144.47;92.39;52605.84;5010724;28;20034;-67
2023/06/10 03:43:48;;;;;;;13.98;5.10;;;;;;;-144.47;92.19;52631.66;5011857;28;20204;-66
2023/06/10 03:46:13;;;;;;;8.82;4.28;;;;;;;-144.47;92.12;52637.63;5013374;28;20101;-70
2023/06/10 03:48:39;;;;;;;12.45;4.47;;;;;;;-144.47;91.92;52621.72;5013420;28;20052;-68
2023/06/10 03:51:04;;;;;;;11.55;4.28;;;;;;;-144.47;91.77;52647.56;5012365;28;20489;-69
2023/06/10 03:53:30;;;;;;;15.48;4.90;;;;;;;-144.47;91.96;52599.88;5007369;28;20026;-69
2023/06/10 03:55:57;;;;;;;9.65;4.43;;;;;;;-144.47;92.15;52633.66;5007302;28;20057;-67
2023/06/10 03:58:22;;;;;;;9.23;4.70;;;;;;;-144.47;92.39;52605.84;5005445;28;20038;-70
2023/06/10 04:00:49;;;;;;;17.45;5.20;;;;;;;-144.47;92.26;52641.59;5005647;28;20040;-71
2023/06/10 04:03:15;;;;;;;10.65;4.15;;;;;;;-144.47;92.02;52601.88;5005568;28;20389;-71
2023/06/10 04:05:41;;;;;;;13.77;5.15;;;;;;;-144.47;92.63;52625.72;5007809;28;20452;-71
2023/06/10 04:08:07;;;;;;;11.20;4.50;;;;;;;-144.47;92.41;52621.72;5007101;28;20511;-70
2023/06/10 04:10:33;;;;;;;15.35;4.93;;;;;;;-144.47;92.39;52629.69;5006161;28;20084;-71
2023/06/10 04:12:58;;;;;;;8.80;4.43;;;;;;;-144.47;92.60;52615.78;5010370;28;20549;-71
2023/06/10 04:15:23;;;;;;;14.30;5.00;;;;;;;-144.47;93.08;52615.78;5007582;28;20033;-70
2023/06/10 04:17:49;;;;;;;9.38;4.50;;;;;;;-144.47;93.41;52635.63;5006936;28;20164;-70
2023/06/10 04:20:15;;;;;;;17.67;6.20;;;;;;;-144.47;93.38;52621.72;5008773;28;20035;-71
2023/06/10 04:22:40;;;;;;;10.18;3.97;;;;;;;-144.47;93.48;52619.75;5002182;28;20034;-66
2023/06/10 04:25:08;;;;;;;18.20;4.88;;;;;;;-144.47;93.49;52619.75;5001220;28;20385;-69
2023/06/10 04:27:34;;;;;;;13.80;4.67;;;;;;;-144.47;94.17;52607.84;5002997;28;20032;-69
2023/06/10 04:29:59;;;;;;;18.13;5.03;;;;;;;-144.47;94.43;52631.66;5003814;28;20054;-69
2023/06/10 04:32:25;;;;;;;14.70;4.95;;;;;;;-144.47;94.40;52627.69;5003501;28;20021;-70
2023/06/10 04:34:50;;;;;;;17.00;5.50;;;;;;;-144.47;94.39;52585.97;5006254;28;20032;-65
2023/06/10 04:37:16;;;;;;;11.05;4.97;;;;;;;-144.47;95.05;52637.63;5009330;28;20407;-69
2023/06/10 04:39:41;;;;;;;12.38;5.22;;;;;;;-144.47;95.45;52657.47;5010133;23;20042;-66
2023/06/10 04:42:07;;;;;;;11.27;5.43;;;;;;;-144.47;96.13;52627.69;4987199;28;20034;-66
2023/06/10 04:44:32;;;;;;;13.85;4.72;;;;;;;-144.47;95.83;52643.56;4985045;28;20041;-65
2023/06/10 04:46:58;;;;;;;9.73;5.20;;;;;;;-144.47;96.19;52625.72;4986647;28;20058;-65
2023/06/10 04:49:23;;;;;;;8.70;4.63;;;;;;;-144.47;96.43;52641.59;4987267;28;20049;-66
2023/06/10 04:51:49;;;;;;;12.68;4.95;;;;;;;-144.47;96.27;52651.53;4987520;28;20030;-65
2023/06/10 04:54:15;;;;;;;12.45;5.03;;;;;;;-144.47;97.14;52659.47;4989462;28;20030;-64
2023/06/10 04:56:41;;;;;;;11.48;5.68;;;;;;;-144.47;97.41;52629.69;4993146;28;20480;-66
2023/06/10 04:59:06;;;;;;;16.10;5.55;;;;;;;-144.47;96.75;52633.66;4992946;28;20056;-66
2023/06/10 05:01:32;;;;;;;14.15;5.70;;;;;;;-144.47;96.01;52611.81;4990971;28;20045;-67
2023/06/10 05:03:57;;;;;;;9.07;5.10;;;;;;;-144.47;96.24;52617.75;4991081;28;20602;-65
2023/06/10 05:06:22;;;;;;;12.32;5.78;;;;;;;-144.47;96.12;52621.72;4995990;28;20427;-70
2023/06/10 05:08:48;;;;;;;11.00;4.55;;;;;;;-144.47;95.87;52633.66;4993465;28;20018;-67
2023/06/10 05:11:13;;;;;;;14.23;6.45;;;;;;;-144.47;95.56;52615.78;4996176;28;20034;-65
2023/06/10 05:13:40;;;;;;;10.20;5.20;;;;;;;-144.47;95.42;52631.66;4993226;28;20085;-66
2023/06/10 05:16:05;;;;;;;13.02;5.93;;;;;;;-144.47;95.59;52619.75;4993288;28;20022;-65
2023/06/10 05:18:31;;;;;;;12.18;5.90;;;;;;;-144.47;96.29;52617.75;4991865;28;20022;-66
2023/06/10 05:20:56;;;;;;;13.63;6.22;;;;;;;-144.47;96.65;52635.63;4992051;28;20404;-65
2023/06/10 05:23:21;;;;;;;15.40;6.05;;;;;;;-144.47;95.87;52641.59;4991731;28;20030;-66
2023/06/10 05:25:47;;;;;;;12.90;5.80;;;;;;;-144.47;94.90;52619.75;4990921;28;20057;-65
2023/06/10 05:28:13;;;;;;;14.45;5.15;;;;;;;-144.47;94.62;52607.84;4991058;28;20113;-68
2023/06/10 05:30:39;;;;;;;9.82;5.40;;;;;;;-144.47;94.32;52639.59;4991670;28;20105;-66
2023/06/10 05:33:04;;;;;;;13.75;5.32;;;;;;;-144.47;94.55;52605.84;4991387;28;20053;-65
2023/06/10 05:35:30;;;;;;;15.70;6.03;;;;;;;-144.47;94.78;52649.53;4988729;28;20041;-65
2023/06/10 05:37:56;;;;;;;13.95;6.38;;;;;;;-144.47;94.57;52637.63;4990055;28;20030;-65
2023/06/10 05:40:21;;;;;;;14.23;6.47;;;;;;;-144.47;94.01;52627.69;4990395;28;20026;-67
2023/06/10 05:42:47;;;;;;;13.05;6.22;;;;;;;-144.47;95.22;52633.66;4990724;28;20120;-66
2023/06/10 05:45:13;;;;;;;14.63;5.80;;;;;;;-144.47;95.21;52613.78;4989954;28;20223;-66
2023/06/10 05:47:38;;;;;;;15.90;6.15;;;;;;;-144.47;95.43;52641.59;4990439;28;20034;-64
2023/06/10 05:50:06;;;;;;;11.63;5.68;;;;;;;-144.47;95.33;52637.63;4984619;28;20026;-63
2023/06/10 05:52:33;;;;;;;15.30;5.88;;;;;;;-144.47;94.40;52611.81;4989850;28;20030;-66
2023/06/10 05:54:59;;;;;;;11.82;5.50;;;;;;;-144.47;94.33;52580.03;4990039;28;20121;-66
2023/06/10 05:57:25;;;;;;;21.08;6.00;;;;;;;-144.47;94.32;52619.75;5005344;28;20185;-66
2023/06/10 05:59:50;;;;;;;13.48;6.07;;;;;;;-144.47;93.98;52621.72;4989145;28;20022;-66
2023/06/10 06:02:15;;;;;;;10.27;5.13;;;;;;;-144.47;94.67;52607.84;4990661;28;20064;-64
2023/06/10 06:04:41;;;;;;;13.68;6.57;;;;;;;-144.47;94.51;52611.81;4989766;28;20113;-66
2023/06/10 06:07:06;;;;;;;16.38;6.78;;;;;;;-144.47;94.51;52637.63;4991138;28;20424;-65
2023/06/10 06:09:31;;;;;;;13.02;5.93;;;;;;;-144.47;94.14;52621.72;4990880;28;20380;-66
2023/06/10 06:11:57;;;;;;;21.23;7.85;;;;;;;-144.47;93.09;52629.69;4990932;28;20108;-65
2023/06/10 06:14:26;;;;;;;13.50;6.15;;;;;;;-144.47;93.09;52621.72;4989832;28;20439;-62
2023/06/10 06:16:51;;;;;;;14.27;6.03;;;;;;;-144.47;92.19;52607.84;4991396;28;20053;-66
2023/06/10 06:19:16;;;;;;;13.90;6.25;;;;;;;-144.47;92.77;52635.63;4990371;28;20117;-66
2023/06/10 06:21:42;;;;;;;20.02;6.00;;;;;;;-144.47;93.40;52637.63;4990658;28;20030;-66
2023/06/10 06:24:08;;;;;;;9.10;5.50;;;;;;;-144.47;92.69;52617.75;4990509;28;20030;-65
2023/06/10 06:26:33;;;;;;;11.98;5.78;;;;;;;-144.47;92.29;52615.78;4990032;28;20066;-65
2023/06/10 06:28:58;;;;;;;11.98;5.93;;;;;;;-144.47;91.98;52645.56;4989243;28;20026;-66
2023/06/10 06:31:24;;;;;;;14.23;7.50;;;;;;;-144.47;92.14;52621.72;4990783;28;20092;-65
2023/06/10 06:33:49;;;;;;;18.02;6.43;;;;;;;-144.47;91.84;52603.84;4990701;28;20153;-67
2023/06/10 06:36:14;;;;;;;15.45;6.57;;;;;;;-144.47;91.93;52611.81;4990539;28;20114;-63
2023/06/10 06:38:40;;;;;;;17.75;6.25;;;;;;;-144.47;91.61;52617.75;4990864;28;20026;-67
2023/06/10 06:41:06;;;;;;;14.30;6.03;;;;;;;-144.47;91.95;52623.72;4991096;28;20062;-65
2023/06/10 06:43:32;;;;;;;13.35;5.82;;;;;;;-144.47;92.34;52631.66;4990117;28;20029;-64
2023/06/10 06:45:57;;;;;;;12.70;6.35;;;;;;;-144.47;91.62;52613.78;4983906;28;20061;-65
2023/06/10 06:48:23;;;;;;;15.75;7.03;;;;;;;-144.47;91.07;52627.69;4990623;28;20056;-65
2023/06/10 06:50:48;;;;;;;16.42;6.78;;;;;;;-144.47;90.28;52605.84;4989384;28;20030;-66
2023/06/10 06:53:14;;;;;;;13.20;5.95;;;;;;;-144.47;90.02;52609.81;4990524;28;20476;-65
2023/06/10 06:55:39;;;;;;;11.32;7.07;;;;;;;-144.47;89.97;52637.63;4990165;28;20023;-65
2023/06/10 06:58:04;;;;;;;14.30;6.72;;;;;;;-144.47;90.17;52625.72;4989692;28;20138;-66
2023/06/10 07:00:31;;;;;;;25.10;8.48;;;;;;;-144.47;88.97;52609.81;4989308;28;20050;-67
2023/06/10 07:02:56;;;;;;;17.67;7.20;;;;;;;-144.47;89.68;52603.84;4990269;28;20027;-67
2023/06/10 07:05:22;;;;;;;11.73;6.53;;;;;;;-144.47;88.93;52601.88;4990321;28;20061;-65
2023/06/10 07:07:47;;;;;;;13.75;6.68;;;;;;;-144.47;89.78;52589.97;4990029;28;20069;-65
2023/06/10 07:10:14;;;;;;;14.25;6.78;;;;;;;-144.47;90.66;52619.75;4988900;28;20026;-63
2023/06/10 07:12:40;;;;;;;14.10;6.40;;;;;;;-144.47;89.89;52613.78;4988079;28;20480;-65
2023/06/10 07:15:05;;;;;;;14.82;7.82;;;;;;;-144.47;89.22;52621.72;4989508;28;20061;-67
2023/06/10 07:17:31;;;;;;;13.48;6.63;;;;;;;-144.47;88.46;52611.81;4992598;28;20048;-65
2023/06/10 07:19:59;;;;;;;11.55;6.10;;;;;;;-144.47;88.06;52621.72;4994497;28;20046;-67
2023/06/10 07:22:24;;;;;;;20.70;7.40;;;;;;;-144.47;87.84;52615.78;4994345;28;20026;-64
2023/06/10 07:24:51;;;;;;;17.08;6.47;;;;;;;-144.47;86.55;52617.75;4993944;28;20034;-66
2023/06/10 07:27:17;;;;;;;12.40;6.15;;;;;;;-144.47;86.30;52599.88;4995186;28;20045;-67
2023/06/10 07:29:42;;;;;;;16.08;7.05;;;;;;;-144.47;85.38;52623.72;4993338;28;20125;-66
2023/06/10 07:32:08;;;;;;;11.00;6.57;;;;;;;-144.47;84.68;52621.72;4992892;28;20060;-66
2023/06/10 07:34:33;;;;;;;15.63;6.85;;;;;;;-144.47;84.87;52595.91;4993593;28;20500;-65
2023/06/10 07:36:58;;;;;;;16.83;7.35;;;;;;;-144.47;83.89;52605.84;4994038;28;20398;-65
2023/06/10 07:39:24;;;;;;;13.60;7.15;;;;;;;-144.47;83.74;52627.69;4993491;28;20033;-66
2023/06/10 07:41:49;;;;;;;15.45;6.70;;;;;;;-144.47;82.47;52619.75;4987689;28;20045;-65
2023/06/10 07:44:15;;;;;;;17.20;6.68;;;;;;;-144.47;82.73;52597.91;4988141;28;20026;-66
2023/06/10 07:46:40;;;;;;;14.18;7.55;;;;;;;-144.47;83.38;52613.78;4991900;28;20483;-62
2023/06/10 07:49:06;;;;;;;15.77;7.28;;;;;;;-144.47;82.74;52621.72;4993305;28;20037;-66
2023/06/10 07:51:31;;;;;;;13.25;6.55;;;;;;;-144.47;81.63;52611.81;4993462;28;20023;-65
2023/06/10 07:53:56;;;;;;;11.38;5.80;;;;;;;-144.47;81.49;52601.88;4991959;28;20026;-66
2023/06/10 07:56:22;;;;;;;15.40;7.57;;;;;;;-144.47;80.44;52619.75;4990943;28;20076;-64
2023/06/10 07:58:48;;;;;;;16.88;6.10;;;;;;;-144.47;80.42;52584.00;4988098;28;20019;-66
2023/06/10 08:01:13;;;;;;;16.23;6.85;;;;;;;-144.47;80.61;52591.94;4992769;28;20457;-64
2023/06/10 08:03:38;;;;;;;14.57;7.18;;;;;;;-144.47;80.26;52629.69;4991184;28;20068;-66
2023/06/10 08:06:05;;;;;;;17.20;6.63;;;;;;;-144.47;80.61;52595.91;4992265;28;20034;-63
2023/06/10 08:08:30;;;;;;;19.48;6.93;;;;;;;-144.47;79.34;52645.56;4992311;28;20102;-65
2023/06/10 08:10:56;;;;;;;13.40;6.75;;;;;;;-144.47;79.44;52637.63;4993133;28;20038;-65
2023/06/10 08:13:21;;;;;;;15.68;7.25;;;;;;;-144.47;78.82;52613.78;4990433;28;20033;-61
2023/06/10 08:15:50;;;;;;;15.60;7.55;;;;;;;-144.47;78.42;52637.63;4974181;28;20445;-64
2023/06/10 08:18:15;;;;;;;14.60;6.40;;;;;;;-144.47;78.00;52643.56;4988423;28;20427;-65
2023/06/10 08:20:41;;;;;;;14.30;7.30;;;;;;;-144.47;77.42;52615.78;4991522;28;20034;-65
2023/06/10 08:23:06;;;;;;;20.45;8.07;;;;;;;-144.47;76.16;52627.69;5006180;28;20034;-64
2023/06/10 08:25:32;;;;;;;14.88;7.28;;;;;;;-144.47;76.12;52613.78;4991119;28;20105;-64
2023/06/10 08:27:58;;;;;;;18.98;7.65;;;;;;;-144.47;76.09;52591.94;4991713;28;20030;-65
2023/06/10 08:30:23;;;;;;;14.13;7.53;;;;;;;-144.47;76.31;52613.78;4992324;28;20105;-65
2023/06/10 08:32:49;;;;;;;13.90;7.13;;;;;;;-144.47;75.76;52621.72;4991641;28;20101;-62
2023/06/10 08:35:14;;;;;;;9.98;6.28;;;;;;;-144.47;75.62;52643.56;4989953;28;20034;-64
2023/06/10 08:37:39;;;;;;;14.77;6.57;;;;;;;-144.47;74.54;52641.59;4983323;28;20582;-65
2023/06/10 08:40:05;;;;;;;17.35;6.97;;;;;;;-144.47;74.48;52637.63;4990799;28;20409;-64
2023/06/10 08:42:48;;;;;;;12.27;6.75;;;;;;;-144.47;73.83;52613.78;4991096;28;20611;-63
2023/06/10 08:45:18;;;;;;;15.40;6.78;;;;;;;-144.47;73.45;52645.56;4990741;28;20018;-63
2023/06/10 08:47:45;;;;;;;12.45;6.93;;;;;;;-144.47;72.75;52623.72;4991213;28;20027;-63
2023/06/10 08:50:14;;;;;;;11.95;5.72;;;;;;;-144.47;72.74;52619.75;4992382;28;20041;-64
2023/06/10 08:52:43;;;;;;;19.27;7.18;;;;;;;-144.47;72.42;52631.66;4992871;28;20026;-66
2023/06/10 08:55:14;;;;;;;16.83;7.15;;;;;;;-144.47;71.28;52641.59;4992003;28;20029;-64
2023/06/10 08:57:42;;;;;;;16.00;6.70;;;;;;;-144.47;70.88;52621.72;4995059;28;20391;-64
2023/06/10 09:00:08;;;;;;;16.42;7.35;;;;;;;-144.47;70.83;52623.72;4993045;28;20026;-66
2023/06/10 09:02:35;;;;;;;11.68;6.32;;;;;;;-144.47;71.36;52645.56;4992433;28;20032;-64
2023/06/10 09:05:00;;;;;;;15.27;7.13;;;;;;;-144.47;68.88;52641.59;4984003;28;20098;-64
2023/06/10 09:07:26;;;;;;;17.23;6.90;;;;;;;-144.47;68.99;52639.59;4993348;28;20023;-65
2023/06/10 09:09:54;;;;;;;13.43;6.90;;;;;;;-144.47;69.49;52633.66;4990909;28;20465;-64
2023/06/10 09:12:19;;;;;;;14.35;6.85;;;;;;;-144.47;68.38;52645.56;4988489;28;20431;-66
2023/06/10 09:14:45;;;;;;;12.27;6.15;;;;;;;-144.47;68.21;52629.69;4991199;28;20018;-65
2023/06/10 09:17:10;;;;;;;14.48;6.32;;;;;;;-144.47;68.03;52645.56;4990544;28;20135;-65
2023/06/10 09:19:38;;;;;;;15.25;7.05;;;;;;;-144.47;66.87;52625.72;4990724;28;20022;-65
2023/06/10 09:22:03;;;;;;;13.98;6.78;;;;;;;-144.47;67.03;52653.50;4990225;28;20041;-64
2023/06/10 09:24:29;;;;;;;14.23;6.68;;;;;;;-144.47;66.86;52637.63;4990434;28;20025;-67
2023/06/10 09:27:03;;;;;;;14.57;6.57;;;;;;;-144.47;66.38;52645.56;4984433;28;20026;-68
2023/06/10 09:29:29;;;;;;;15.43;6.80;;;;;;;-144.47;65.97;52657.47;4988038;28;20018;-66
2023/06/10 09:31:54;;;;;;;13.02;6.38;;;;;;;-144.47;64.99;52633.66;4990645;28;20585;-64
2023/06/10 09:34:24;;;;;;;13.80;7.10;;;;;;;-144.47;64.83;52641.59;4989768;28;20026;-65
2023/06/10 09:36:50;;;;;;;14.55;6.32;;;;;;;-144.47;63.79;52629.69;4990625;28;20042;-65
2023/06/10 09:39:17;;;;;;;12.18;6.05;;;;;;;-144.47;63.92;52641.59;4990096;28;20391;-67
2023/06/10 09:41:44;;;;;;;20.55;5.93;;;;;;;-144.47;63.02;52651.53;4991694;28;20088;-66
2023/06/10 09:44:15;;;;;;;15.38;7.28;;;;;;;-144.47;61.63;52655.50;4990066;28;20018;-67
2023/06/10 09:46:41;;;;;;;15.27;6.68;;;;;;;-144.47;61.34;52639.59;4990666;28;20022;-66
2023/06/10 09:49:07;;;;;;;11.63;6.63;;;;;;;-144.47;59.93;52657.47;4991730;28;20056;-67
2023/06/10 09:51:32;;;;;;;11.38;6.15;;;;;;;-144.47;59.92;52671.38;4991151;28;20498;-66
2023/06/10 09:53:58;;;;;;;11.20;6.43;;;;;;;-144.47;59.41;52685.28;4991418;28;20069;-64
2023/06/10 09:56:37;;;;;;;13.30;7.03;;;;;;;-144.47;59.64;52667.41;4991066;28;20503;-65
2023/06/10 09:59:05;;;;;;;12.55;6.60;;;;;;;-144.47;58.58;52663.44;4990987;28;20022;-66
2023/06/10 10:01:33;;;;;;;15.43;6.82;;;;;;;-144.47;58.66;52681.31;4989042;28;20042;-64
2023/06/10 10:03:59;;;;;;;12.65;6.18;;;;;;;-144.47;58.77;52683.31;4988724;28;20038;-65
2023/06/10 10:06:25;;;;;;;13.02;6.40;;;;;;;-144.47;56.42;52669.41;4988131;28;20026;-67
2023/06/10 10:08:51;;;;;;;15.15;6.45;;;;;;;-144.47;56.54;52653.50;4989005;28;20365;-65
2023/06/10 10:11:18;;;;;;;10.82;6.30;;;;;;;-144.47;56.77;52649.53;4990937;28;20110;-66
2023/06/10 10:13:47;;;;;;;14.90;6.50;;;;;;;-144.47;56.17;52663.44;4988901;28;20105;-65
2023/06/10 10:16:33;;;;;;;13.35;6.50;;;;;;;-144.47;53.83;52661.44;4982744;28;20022;-65
2023/06/10 10:19:10;;;;;;;15.52;6.40;;;;;;;-144.47;54.30;52689.25;4987010;28;20026;-65
2023/06/10 10:21:42;;;;;;;13.13;6.40;;;;;;;-144.47;53.01;52699.19;4987324;28;20096;-66
2023/06/10 10:24:25;;;;;;;14.32;5.80;;;;;;;-144.47;52.04;52675.34;4994027;28;20022;-65
2023/06/10 10:26:58;;;;;;;16.17;6.78;;;;;;;-144.47;53.15;52689.25;4989214;28;20018;-64
2023/06/10 10:29:25;;;;;;;13.40;6.63;;;;;;;-144.47;51.60;52705.16;4989045;28;20018;-66
2023/06/10 10:31:53;;;;;;;13.27;6.63;;;;;;;-144.47;51.76;52667.41;4990561;28;20357;-66
2023/06/10 10:34:25;;;;;;;;;;;;;;;-144.47;51.07;52681.31;4990423;28;20548;-65
2023/06/10 10:36:51;;;;;;;13.93;6.43;;;;;;;-144.47;50.87;52683.31;4989757;28;20595;-66
2023/06/10 10:39:17;;;;;;;16.50;7.03;;;;;;;-144.47;50.75;52703.16;5007552;23;20034;-71
2023/06/10 10:41:44;;;;;;;15.27;6.93;;;;;;;-144.47;49.74;52709.13;5006875;28;20149;-71
2023/06/10 10:44:11;;;;;;;14.57;6.63;;;;;;;-144.47;50.00;52697.19;5002885;28;20034;-70
2023/06/10 10:46:50;;;;;;;15.80;6.60;;;;;;;-144.47;50.23;52728.97;5006033;28;20041;-70
2023/06/10 10:49:20;;;;;;;14.52;6.55;;;;;;;-144.47;50.33;52695.22;5005913;28;20129;-68
2023/06/10 10:51:59;;;;;;;12.77;7.22;;;;;;;-144.47;49.41;52715.06;5003431;28;20059;-69
2023/06/10 10:54:34;;;;;;;14.25;6.35;;;;;;;-144.47;48.86;52703.16;5000556;28;20151;-67
2023/06/10 10:57:08;;;;;;;11.38;6.40;;;;;;;-144.47;47.27;52736.94;5003626;28;20025;-71
2023/06/10 10:59:49;;;;;;;11.73;6.43;;;;;;;-144.47;47.84;52721.03;5007058;28;20205;-68
2023/06/10 11:02:45;;;;;;;10.18;5.90;;;;;;;-144.47;47.56;52689.25;5004886;28;20049;-70
2023/06/10 11:05:15;;;;;;;9.90;5.97;;;;;;;-144.47;46.50;52711.09;4985635;28;20472;-71
2023/06/10 11:07:51;;;;;;;9.88;5.88;;;;;;;-144.47;47.18;52717.06;5008082;28;20037;-68
2023/06/10 11:10:16;;;;;;;13.63;5.85;;;;;;;-144.47;46.55;52705.16;5006440;28;20026;-71